createdAt,value
2019-03-23T14:33:40.203Z,14.60
2019-03-23T14:36:11.502Z,14.50
2019-03-23T14:38:45.552Z,14.50
2019-03-23T14:41:16.606Z,14.60
2019-03-23T14:43:47.653Z,14.50
2019-03-23T14:46:18.695Z,14.50
2019-03-23T14:48:53.507Z,14.40
2019-03-23T14:51:24.645Z,14.40
2019-03-23T14:53:55.969Z,14.30
2019-03-23T14:56:31.553Z,14.40
2019-03-23T14:58:59.636Z,14.40
2019-03-23T15:01:30.747Z,14.30
2019-03-23T15:04:02.132Z,14.30
2019-03-23T15:06:35.522Z,14.20
2019-03-23T15:09:08.060Z,14.20
2019-03-23T15:11:39.177Z,14.30
2019-03-23T15:14:10.382Z,14.30
2019-03-23T15:16:59.077Z,14.30
2019-03-23T15:19:31.856Z,14.30
2019-03-23T15:22:02.939Z,14.20
2019-03-23T15:24:33.971Z,14.20
2019-03-23T15:27:06.592Z,14.10
2019-03-23T15:29:37.729Z,14.10
2019-03-23T15:32:09.389Z,14.10
2019-03-23T15:34:45.413Z,14.00
2019-03-23T15:37:18.096Z,14.00
2019-03-23T15:39:50.378Z,14.00
2019-03-23T15:42:24.989Z,14.00
2019-03-23T15:44:55.385Z,13.90
2019-03-23T15:47:28.166Z,13.90
2019-03-23T15:50:02.026Z,13.90
2019-03-23T15:52:33.960Z,13.90
2019-03-23T15:55:05.285Z,13.90
2019-03-23T15:57:41.627Z,13.80
2019-03-23T16:00:55.627Z,13.80
2019-03-23T16:03:26.682Z,13.80
2019-03-23T16:05:57.812Z,13.70
2019-03-23T16:08:28.882Z,13.70
2019-03-23T16:11:02.653Z,13.60
2019-03-23T16:13:35.417Z,13.60
2019-03-23T16:18:55.800Z,13.60
2019-03-23T16:21:28.115Z,13.50
2019-03-23T16:23:59.266Z,13.40
2019-03-23T16:26:30.397Z,13.40
2019-03-23T16:29:01.572Z,13.30
2019-03-23T16:31:32.701Z,13.20
2019-03-23T16:34:03.718Z,13.10
2019-03-23T16:36:34.867Z,13.10
2019-03-23T16:39:06.903Z,13.00
2019-03-23T16:41:38.542Z,12.90
2019-03-23T16:44:09.651Z,12.80
2019-03-23T16:46:40.738Z,12.70
2019-03-23T16:49:12.938Z,12.60
2019-03-23T16:51:44.119Z,12.50
2019-03-23T16:54:16.528Z,12.40
2019-03-23T16:56:47.814Z,12.30
2019-03-23T16:59:19.658Z,12.20
2019-03-23T17:01:54.971Z,12.10
2019-03-23T17:04:28.189Z,12.00
2019-03-23T17:10:37.333Z,11.70
2019-03-23T17:13:08.466Z,11.60
2019-03-23T17:15:39.862Z,11.50
2019-03-23T17:18:11.298Z,11.40
2019-03-23T17:20:42.446Z,11.30
2019-03-23T17:26:41.147Z,11.00
2019-03-23T17:29:12.391Z,10.80
2019-03-23T17:31:49.468Z,10.60
2019-03-23T17:34:20.557Z,10.60
2019-03-23T17:36:51.827Z,10.40
2019-03-23T17:39:25.816Z,10.30
2019-03-23T17:41:56.931Z,10.20
2019-03-23T17:44:31.297Z,10.10
2019-03-23T17:47:02.622Z,9.90
2019-03-23T17:49:33.848Z,9.70
2019-03-23T18:05:00.641Z,8.70
2019-03-23T18:07:31.938Z,8.50
2019-03-23T18:10:03.142Z,8.40
2019-03-23T18:12:36.838Z,8.30
2019-03-23T18:15:08.754Z,8.20
2019-03-23T18:26:54.849Z,7.60
2019-03-23T18:29:26.041Z,7.40
2019-03-23T18:31:58.294Z,7.30
2019-03-23T18:34:30.611Z,7.20
2019-03-23T18:37:04.498Z,7.00
2019-03-23T18:39:41.677Z,6.90
2019-03-23T18:42:14.327Z,6.90
2019-03-23T18:44:45.549Z,6.80
2019-03-23T18:47:16.604Z,6.60
2019-03-23T18:49:47.892Z,6.50
2019-03-23T18:52:19.124Z,6.50
2019-03-23T18:54:52.712Z,6.30
2019-03-23T18:57:23.907Z,6.30
2019-03-23T19:00:11.331Z,6.20
2019-03-23T19:03:00.742Z,6.10
2019-03-23T19:05:21.223Z,6.10
2019-03-23T19:07:54.084Z,6.00
2019-03-23T19:10:29.942Z,5.90
2019-03-23T19:13:02.737Z,5.90
2019-03-23T19:15:33.824Z,5.80
2019-03-23T19:18:07.801Z,5.50
2019-03-23T19:20:39.016Z,5.50
2019-03-23T19:23:11.143Z,5.40
2019-03-23T19:25:48.276Z,5.40
2019-03-23T19:28:20.477Z,5.30
2019-03-23T19:30:52.040Z,5.20
2019-03-23T19:33:23.293Z,5.20
2019-03-23T19:35:54.474Z,5.20
2019-03-23T19:38:28.570Z,5.10
2019-03-23T19:41:02.978Z,5.00
2019-03-23T19:43:35.143Z,5.10
2019-03-23T19:46:08.163Z,5.00
2019-03-23T19:48:39.703Z,5.00
2019-03-23T19:51:13.926Z,5.00
2019-03-23T19:53:51.350Z,4.90
2019-03-23T19:56:25.523Z,4.90
2019-03-23T19:58:56.717Z,4.80
2019-03-23T20:01:32.158Z,4.80
2019-03-23T20:13:36.515Z,4.40
2019-03-23T20:16:07.847Z,4.30
2019-03-23T20:18:40.977Z,4.30
2019-03-23T20:21:12.148Z,4.20
2019-03-23T20:23:43.298Z,4.20
2019-03-23T20:26:14.715Z,4.10
2019-03-23T20:28:46.682Z,4.10
2019-03-23T20:31:17.967Z,4.00
2019-03-23T20:37:24.918Z,3.70
2019-03-23T20:39:56.053Z,3.70
2019-03-23T20:42:27.098Z,3.70
2019-03-23T20:44:58.105Z,3.60
2019-03-23T20:47:30.555Z,3.60
2019-03-23T20:50:01.866Z,3.50
2019-03-23T20:52:35.142Z,3.50
2019-03-23T20:55:07.900Z,3.40
2019-03-23T20:57:39.083Z,3.30
2019-03-23T21:03:37.243Z,3.10
2019-03-23T21:06:12.706Z,3.10
2019-03-23T21:08:44.015Z,3.10
2019-03-23T21:11:17.974Z,3.10
2019-03-23T21:13:49.189Z,3.00
2019-03-23T21:23:13.368Z,2.80
2019-03-23T21:25:44.362Z,2.80
2019-03-23T21:28:15.537Z,2.80
2019-03-23T21:30:46.570Z,2.70
2019-03-23T21:33:17.558Z,2.70
2019-03-23T21:35:48.600Z,2.70
2019-03-23T21:38:19.698Z,2.60
2019-03-23T21:40:51.733Z,2.50
2019-03-23T21:43:24.024Z,2.50
2019-03-23T21:45:56.779Z,2.40
2019-03-23T21:48:27.919Z,2.40
2019-03-23T21:50:58.890Z,2.40
2019-03-23T21:53:29.909Z,2.30
2019-03-23T21:59:29.159Z,2.20
2019-03-23T22:02:00.192Z,2.20
2019-03-23T22:04:31.260Z,2.10
2019-03-23T22:07:02.378Z,2.20
2019-03-23T22:09:33.486Z,2.10
2019-03-23T22:12:05.269Z,2.10
2019-03-23T22:14:41.688Z,2.00
2019-03-23T22:17:09.095Z,2.00
2019-03-23T22:19:40.215Z,2.00
2019-03-23T22:22:11.235Z,1.90
2019-03-23T22:24:42.363Z,1.80
2019-03-23T22:27:13.563Z,1.80
2019-03-23T22:29:44.742Z,1.70
2019-03-23T22:32:15.933Z,1.70
2019-03-23T22:34:49.204Z,1.60
2019-03-23T22:37:19.760Z,1.50
2019-03-23T22:39:55.279Z,1.60
2019-03-23T22:42:26.287Z,1.60
2019-03-23T22:44:57.278Z,1.50
2019-03-23T22:47:28.339Z,1.60
2019-03-23T22:53:11.401Z,1.50
2019-03-23T22:55:42.337Z,1.50
2019-03-23T22:58:13.368Z,1.50
2019-03-23T23:00:50.049Z,1.40
2019-03-23T23:03:21.197Z,1.40
2019-03-23T23:05:52.208Z,1.40
2019-03-23T23:08:23.257Z,1.40
2019-03-23T23:10:54.258Z,1.40
2019-03-23T23:13:25.303Z,1.40
2019-03-23T23:15:56.270Z,1.40
2019-03-23T23:18:27.182Z,1.30
2019-03-23T23:20:58.172Z,1.30
2019-03-23T23:23:29.249Z,1.20
2019-03-23T23:29:03.073Z,1.10
2019-03-23T23:31:34.086Z,1.10
2019-03-23T23:34:05.114Z,1.00
2019-03-23T23:36:36.160Z,1.00
2019-03-23T23:39:15.283Z,0.90
2019-03-23T23:41:47.235Z,0.80
2019-03-23T23:44:18.294Z,0.80
2019-03-23T23:46:49.326Z,0.80
2019-03-23T23:49:55.344Z,0.80
2019-03-23T23:52:29.687Z,0.90
2019-03-23T23:55:00.724Z,1.00
2019-03-23T23:57:31.633Z,0.90
